createdAt,value
2023-05-02T00:00:54.147Z,8.80
2023-05-02T00:05:55.291Z,8.74
2023-05-02T00:10:56.265Z,8.75
2023-05-02T00:15:57.724Z,8.77
2023-05-02T00:20:58.788Z,8.77
2023-05-02T00:26:00.152Z,8.82
2023-05-02T00:31:01.682Z,8.87
2023-05-02T00:36:02.985Z,8.93
2023-05-02T00:41:05.180Z,9.04
2023-05-02T00:46:07.322Z,9.16
2023-05-02T00:51:11.486Z,9.30
2023-05-02T00:56:12.555Z,9.46
2023-05-02T01:01:29.187Z,9.57
2023-05-02T01:06:42.616Z,9.67
2023-05-02T01:11:52.970Z,9.76
2023-05-02T01:16:56.119Z,9.84
2023-05-02T01:21:59.527Z,9.94
2023-05-02T01:27:14.693Z,10.13
2023-05-02T01:32:19.013Z,10.30
2023-05-02T01:37:22.793Z,10.43
2023-05-02T01:42:26.204Z,10.54
2023-05-02T01:47:30.473Z,10.59
2023-05-02T01:52:32.254Z,10.62
2023-05-02T01:57:35.999Z,10.62
2023-05-02T02:02:38.677Z,10.64
2023-05-02T02:07:40.371Z,10.62
2023-05-02T02:12:44.640Z,10.64
2023-05-02T02:17:49.080Z,10.70
2023-05-02T02:22:52.446Z,10.76
2023-05-02T02:27:53.822Z,10.79
2023-05-02T02:32:55.241Z,10.81
2023-05-02T02:38:28.055Z,10.82
2023-05-02T02:44:13.534Z,10.79
2023-05-02T02:49:28.383Z,10.76
2023-05-02T02:54:40.545Z,10.69
2023-05-02T02:59:50.717Z,10.65
2023-05-02T03:04:54.266Z,10.59
2023-05-02T03:09:55.565Z,10.54
2023-05-02T03:15:13.925Z,10.49
2023-05-02T03:20:16.041Z,10.41
2023-05-02T03:25:17.220Z,10.37
2023-05-02T03:30:19.458Z,10.31
2023-05-02T03:35:21.225Z,10.27
2023-05-02T03:40:22.972Z,10.25
2023-05-02T03:45:24.112Z,10.29
2023-05-02T03:50:26.100Z,10.33
2023-05-02T03:55:27.785Z,10.39
2023-05-02T04:00:30.843Z,10.45
2023-05-02T04:05:34.072Z,10.52
2023-05-02T04:10:35.781Z,10.59
2023-05-02T04:15:40.018Z,10.65
2023-05-02T04:20:44.883Z,10.70
2023-05-02T04:25:56.432Z,10.79
2023-05-02T04:31:05.262Z,10.87
2023-05-02T04:36:09.318Z,11.00
2023-05-02T04:41:11.085Z,11.14
2023-05-02T04:46:17.884Z,11.34
2023-05-02T04:51:19.243Z,11.53
2023-05-02T04:56:23.033Z,11.71
2023-05-02T05:01:27.115Z,11.90
2023-05-02T05:06:29.059Z,12.14
2023-05-02T05:11:30.964Z,12.39
2023-05-02T05:16:32.956Z,12.67
2023-05-02T05:21:34.441Z,12.98
2023-05-02T05:26:36.838Z,13.28
2023-05-02T05:31:38.077Z,13.58
2023-05-02T05:36:40.808Z,13.90
2023-05-02T05:41:42.619Z,14.23
2023-05-02T05:46:45.700Z,14.62
2023-05-02T05:51:47.367Z,14.95
2023-05-02T05:56:49.005Z,15.30
2023-05-02T06:01:53.436Z,15.71
2023-05-02T06:06:56.624Z,16.10
2023-05-02T06:11:58.163Z,16.55
2023-05-02T06:17:00.044Z,17.01
2023-05-02T06:22:02.085Z,17.38
2023-05-02T06:27:03.206Z,17.66
2023-05-02T06:32:05.788Z,17.88
2023-05-02T06:37:06.880Z,18.08
2023-05-02T06:42:07.936Z,18.21
2023-05-02T06:47:09.492Z,18.32
2023-05-02T06:52:10.582Z,18.57
2023-05-02T06:57:11.715Z,18.50
2023-05-02T07:02:12.695Z,18.49
2023-05-02T07:07:17.933Z,18.39
2023-05-02T07:12:19.082Z,18.35
2023-05-02T07:17:20.729Z,18.25
2023-05-02T07:22:21.668Z,18.48
2023-05-02T07:27:22.973Z,18.51
2023-05-02T07:32:27.408Z,18.59
2023-05-02T07:37:34.335Z,18.81
2023-05-02T07:42:35.796Z,19.18
2023-05-02T07:47:37.025Z,19.62
2023-05-02T07:52:38.102Z,19.88
2023-05-02T07:57:39.352Z,20.30
2023-05-02T08:02:42.029Z,20.70
2023-05-02T08:07:43.281Z,20.83
2023-05-02T08:12:44.298Z,20.79
2023-05-02T08:17:45.306Z,20.92
2023-05-02T08:22:46.329Z,20.90
2023-05-02T08:27:47.310Z,20.86
2023-05-02T08:32:48.360Z,20.78
2023-05-02T08:37:49.366Z,20.92
2023-05-02T08:42:52.425Z,21.17
2023-05-02T08:47:56.821Z,21.33
2023-05-02T08:52:58.973Z,21.56
2023-05-02T08:58:00.866Z,21.92
2023-05-02T09:03:05.689Z,22.41
2023-05-02T09:08:07.838Z,22.36
2023-05-02T09:13:29.832Z,22.12
2023-05-02T09:18:51.338Z,21.98
2023-05-02T09:23:54.873Z,22.10
2023-05-02T09:28:56.831Z,22.10
2023-05-02T09:34:08.225Z,21.99
2023-05-02T09:39:13.028Z,22.01
2023-05-02T09:44:19.119Z,21.88
2023-05-02T09:49:44.188Z,21.87
2023-05-02T09:54:45.837Z,22.27
2023-05-02T09:59:55.216Z,22.81
2023-05-02T10:04:57.382Z,23.08
2023-05-02T10:10:01.095Z,22.96
2023-05-02T10:15:03.924Z,22.74
2023-05-02T10:20:07.130Z,22.58
2023-05-02T10:25:08.821Z,22.20
2023-05-02T10:30:12.606Z,21.93
2023-05-02T10:35:15.441Z,21.85
2023-05-02T10:40:18.235Z,21.85
2023-05-02T10:45:34.008Z,21.33
2023-05-02T10:50:51.617Z,21.08
2023-05-02T10:56:09.008Z,20.65
2023-05-02T11:01:35.824Z,20.77
2023-05-02T11:06:57.158Z,20.99
2023-05-02T11:11:58.118Z,20.95
2023-05-02T11:16:59.261Z,20.83
2023-05-02T11:22:18.917Z,20.88
2023-05-02T11:27:28.842Z,20.83
2023-05-02T11:32:46.105Z,20.51
2023-05-02T11:37:54.702Z,20.56
2023-05-02T11:42:58.030Z,20.59
2023-05-02T11:47:59.413Z,20.52
2023-05-02T11:53:00.646Z,20.41
2023-05-02T11:58:01.726Z,20.35
2023-05-02T12:03:03.627Z,20.48
2023-05-02T12:08:04.758Z,20.35
2023-05-02T12:13:06.093Z,20.40
2023-05-02T12:18:07.742Z,20.26
2023-05-02T12:23:10.104Z,20.12
2023-05-02T12:28:11.655Z,19.96
2023-05-02T12:33:13.193Z,19.62
2023-05-02T12:38:17.565Z,19.48
2023-05-02T12:43:21.288Z,19.17
2023-05-02T12:48:26.793Z,18.89
2023-05-02T12:53:42.554Z,18.81
2023-05-02T12:58:45.501Z,18.96
2023-05-02T13:03:47.577Z,19.24
2023-05-02T13:08:48.671Z,19.21
2023-05-02T13:13:49.813Z,19.41
2023-05-02T13:18:50.987Z,19.58
2023-05-02T13:23:52.779Z,19.73
2023-05-02T13:28:53.833Z,19.86
2023-05-02T13:33:55.082Z,19.91
2023-05-02T13:38:57.005Z,19.96
2023-05-02T13:43:58.074Z,20.15
2023-05-02T13:48:59.131Z,20.13
2023-05-02T13:54:00.635Z,19.96
2023-05-02T13:59:02.052Z,19.54
2023-05-02T14:04:07.874Z,19.12
2023-05-02T14:09:09.189Z,18.91
2023-05-02T14:14:11.915Z,18.57
2023-05-02T14:19:13.159Z,18.62
2023-05-02T14:24:15.796Z,18.57
2023-05-02T14:29:17.442Z,18.48
2023-05-02T14:34:18.509Z,18.31
2023-05-02T14:39:19.692Z,18.17
2023-05-02T14:44:20.765Z,17.97
2023-05-02T14:49:21.884Z,17.89
2023-05-02T14:54:27.889Z,17.53
2023-05-02T14:59:29.819Z,17.26
2023-05-02T15:04:31.106Z,17.08
2023-05-02T15:09:32.493Z,16.82
2023-05-02T15:14:33.535Z,16.64
2023-05-02T15:19:34.607Z,16.46
2023-05-02T15:24:35.872Z,16.32
2023-05-02T15:29:37.067Z,16.20
2023-05-02T15:34:38.122Z,16.08
2023-05-02T15:39:39.151Z,15.91
2023-05-02T15:44:40.106Z,15.72
2023-05-02T15:49:41.112Z,15.44
2023-05-02T15:54:42.343Z,15.04
2023-05-02T15:59:43.538Z,14.56
2023-05-02T16:04:44.610Z,14.21
2023-05-02T16:09:45.597Z,14.02
2023-05-02T16:14:46.973Z,13.85
2023-05-02T16:19:47.950Z,13.71
2023-05-02T16:24:49.178Z,13.54
2023-05-02T16:29:50.581Z,13.41
2023-05-02T16:34:51.839Z,13.28
2023-05-02T16:39:54.723Z,13.21
2023-05-02T16:44:56.943Z,13.18
2023-05-02T16:49:59.178Z,13.12
2023-05-02T16:55:00.794Z,13.00
2023-05-02T17:00:05.543Z,13.13
2023-05-02T17:05:09.011Z,13.10
2023-05-02T17:10:11.171Z,12.99
2023-05-02T17:15:13.436Z,12.85
2023-05-02T17:20:16.641Z,12.71
2023-05-02T17:25:17.812Z,12.64
2023-05-02T17:30:19.412Z,12.64
2023-05-02T17:35:20.648Z,12.64
2023-05-02T17:40:21.845Z,12.59
2023-05-02T17:45:23.045Z,12.54
2023-05-02T17:50:24.152Z,12.54
2023-05-02T17:55:25.167Z,12.62
2023-05-02T18:00:26.172Z,12.73
2023-05-02T18:05:27.411Z,12.83
2023-05-02T18:10:28.798Z,12.74
2023-05-02T18:15:29.839Z,12.64
2023-05-02T18:20:31.033Z,12.60
2023-05-02T18:25:35.268Z,12.54
2023-05-02T18:30:37.237Z,12.50
2023-05-02T18:35:38.228Z,12.45
2023-05-02T18:40:39.298Z,12.40
2023-05-02T18:45:40.599Z,12.42
2023-05-02T18:50:42.006Z,12.43
2023-05-02T18:55:43.010Z,12.43
2023-05-02T19:00:44.002Z,12.38
2023-05-02T19:05:45.158Z,12.27
2023-05-02T19:10:46.686Z,12.19
2023-05-02T19:15:47.734Z,12.19
2023-05-02T19:20:49.964Z,12.20
2023-05-02T19:26:01.159Z,12.21
2023-05-02T19:31:16.476Z,12.15
2023-05-02T19:36:22.464Z,12.06
2023-05-02T19:41:23.723Z,12.00
2023-05-02T19:46:24.806Z,12.01
2023-05-02T19:51:27.377Z,12.07
2023-05-02T19:56:28.976Z,12.17
2023-05-02T20:01:30.526Z,12.23
2023-05-02T20:06:32.768Z,12.19
2023-05-02T20:11:33.930Z,12.18
2023-05-02T20:16:35.143Z,12.18
2023-05-02T20:21:36.706Z,12.18
2023-05-02T20:26:37.671Z,12.13
2023-05-02T20:31:39.525Z,12.03
2023-05-02T20:36:40.491Z,11.93
2023-05-02T20:41:41.656Z,11.86
2023-05-02T20:46:43.142Z,11.80
2023-05-02T20:51:44.228Z,11.77
2023-05-02T20:56:45.356Z,11.76
2023-05-02T21:01:46.373Z,11.75
2023-05-02T21:06:48.325Z,11.74
2023-05-02T21:11:50.608Z,11.77
2023-05-02T21:16:52.604Z,11.78
2023-05-02T21:21:53.718Z,11.78
2023-05-02T21:26:54.873Z,11.72
2023-05-02T21:31:55.981Z,11.63
2023-05-02T21:36:57.498Z,11.56
2023-05-02T21:42:18.755Z,11.48
2023-05-02T21:47:26.870Z,11.44
2023-05-02T21:52:30.998Z,11.40
2023-05-02T21:57:31.964Z,11.39
2023-05-02T22:02:33.058Z,11.48
2023-05-02T22:07:34.205Z,11.56
2023-05-02T22:12:35.194Z,11.62
2023-05-02T22:17:36.425Z,11.66
2023-05-02T22:22:37.610Z,11.67
2023-05-02T22:27:38.960Z,11.71
2023-05-02T22:32:40.734Z,11.78
2023-05-02T22:37:41.972Z,11.83
2023-05-02T22:42:42.951Z,11.84
2023-05-02T22:47:44.013Z,11.82
2023-05-02T22:52:46.287Z,11.78
2023-05-02T22:57:47.267Z,11.74
2023-05-02T23:02:48.623Z,11.74
2023-05-02T23:07:50.537Z,11.83
2023-05-02T23:12:55.543Z,11.92
2023-05-02T23:17:56.565Z,11.92
2023-05-02T23:22:57.658Z,11.87
2023-05-02T23:27:58.823Z,11.78
2023-05-02T23:33:00.303Z,11.67
2023-05-02T23:38:27.539Z,11.62
2023-05-02T23:43:48.987Z,11.69
2023-05-02T23:49:09.986Z,11.68
2023-05-02T23:54:11.000Z,11.62
2023-05-02T23:59:12.279Z,11.57
